Flagstaff, AZ

7:12 PM MST on September 25, 2016 (GMT -0700)
University Highlands | | Change Station

Elev 7067 ft 35.17 °N, 111.68 °W | Updated 27 seconds ago

Clear
Clear
58.1 °F
Feels Like 58.1 °F
N
0.0
Wind Variable Wind from WNW
Gusts 0.0 mph

Today
High -- | Low -- °F
--% Chance of Precip.
Yesterday
High -- | Low -- °F
Precip. -- in
Pressure 30.16 in
Visibility 10.0 miles
Clouds Clear
Dew Point 31 °F
Humidity 36%
Rainfall 0.00 in
Snow Depth Not available.
6:17 AM 6:18 PM
Waning Crescent, 23% visible
METAR KFLG 260157Z 04008KT 10SM CLR 13/M01 A3035 RMK AO2 SLP212 T01331006
Pressure 30.16 in
Visibility 10.0 miles
Clouds Clear
Dew Point 31 °F
Humidity 36%
Rainfall 0.00 in
Snow Depth Not available.
6:17 AM 6:18 PM
Waning Crescent, 23% visible
METAR KFLG 260157Z 04008KT 10SM CLR 13/M01 A3035 RMK AO2 SLP212 T01331006

10-Day Weather Forecast

Almanac

Astronomy

Sep. 25, 2016 Rise Set
Actual Time
Civil Twilight
Nautical Twilight
Astronomical Twilight
Moon
Length of Visible Light
Length of Day
Tomorrow will be .
, % of the Moon is Illuminated

Today's Extremes

State Highs State Lows

Community

WunderPhotos

Upload Photos

1,941,811 photos uploaded!

WunderBlog® & News

Nearby

Air Quality

  Air Quality AQ Index Pollutant
Not available.

Snow Depth

Station Depth Elevation

Earthquake Activity

City Distance Mag. Time & Date
Minimum magnitude displayed is 2.5.

Coastal Water Temperatures

Place Temperature

Stations

Nearby Weather Stations

Station Location Temp. Windchill Dew Point Humidity Wind Precip. Elev Updated Type
                   

Watches & Warnings

There are currently no watches in effect.